Time;durP1;ratioP1;P1;durP2;ratioP2;P2;SDS_P1;SDS_P2;PMS_P1;PMS_P2;Temp;Humidity;BMP_temperature;BMP_pressure;BME280_temperature;BME280_humidity;BME280_pressure;Samples;Min_cycle;Max_cycle;Signal;HPM_P1;HPM_P2
2022/10/29 00:04:37;;;;;;;16.83;5.17;;;17.40;99.90;;;;;;10398257;28;20639;-72
2022/10/29 00:09:37;;;;;;;14.40;4.70;;;17.50;99.90;;;;;;10386411;28;20300;-72
2022/10/29 00:14:38;;;;;;;11.57;4.47;;;17.60;99.90;;;;;;10391818;28;20219;-71
2022/10/29 00:19:38;;;;;;;17.67;5.80;;;17.60;99.90;;;;;;10384824;28;20594;-71
2022/10/29 00:24:39;;;;;;;18.13;5.83;;;17.60;99.90;;;;;;10385174;28;20257;-70
2022/10/29 00:29:39;;;;;;;14.03;4.97;;;17.50;99.90;;;;;;10391660;28;20226;-72
2022/10/29 00:34:40;;;;;;;14.97;5.17;;;17.40;99.90;;;;;;10391552;28;20221;-71
2022/10/29 00:39:40;;;;;;;12.33;5.17;;;17.30;99.90;;;;;;10393103;28;20218;-72
2022/10/29 00:44:41;;;;;;;15.63;5.30;;;17.20;99.90;;;;;;10392432;28;20282;-71
2022/10/29 00:49:46;;;;;;;16.23;4.93;;;17.10;99.90;;;;;;10384521;28;20223;-72
2022/10/29 00:54:48;;;;;;;16.00;5.40;;;17.00;99.90;;;;;;10397495;28;20209;-72
2022/10/29 00:59:49;;;;;;;15.30;5.27;;;17.00;99.90;;;;;;10390363;28;20274;-72
2022/10/29 01:04:52;;;;;;;12.00;4.90;;;17.00;99.90;;;;;;10384606;28;20601;-72
2022/10/29 01:09:52;;;;;;;19.33;5.50;;;16.90;99.90;;;;;;10390851;28;20240;-72
2022/10/29 01:14:55;;;;;;;18.27;5.67;;;16.90;99.90;;;;;;10390562;28;20600;-72
2022/10/29 01:20:24;;;;;;;13.40;4.77;;;16.90;99.90;;;;;;10385380;28;20709;-72
2022/10/29 01:25:43;;;;;;;16.97;5.10;;;16.90;99.90;;;;;;10422267;28;20260;-71
2022/10/29 01:31:05;;;;;;;18.73;5.40;;;16.80;99.90;;;;;;10395611;28;20228;-72
2022/10/29 01:36:35;;;;;;;11.13;5.33;;;16.70;99.90;;;;;;10430549;28;20216;-72
2022/10/29 01:42:04;;;;;;;15.50;5.10;;;16.60;99.90;;;;;;10381899;28;20225;-72
2022/10/29 01:47:14;;;;;;;12.43;5.07;;;16.60;99.90;;;;;;10385407;28;20258;-72
2022/10/29 01:52:18;;;;;;;14.83;5.00;;;16.60;99.90;;;;;;10386044;28;20276;-72
2022/10/29 01:57:35;;;;;;;14.00;5.13;;;16.60;99.90;;;;;;10405355;28;20217;-73
2022/10/29 02:02:58;;;;;;;14.70;4.90;;;16.50;99.90;;;;;;10408512;28;20259;-72
2022/10/29 02:08:17;;;;;;;9.27;4.83;;;16.50;99.90;;;;;;10383455;28;20716;-73
2022/10/29 02:13:22;;;;;;;14.37;5.33;;;16.40;99.90;;;;;;10418729;28;20307;-72
2022/10/29 02:18:23;;;;;;;12.93;5.63;;;16.30;99.90;;;;;;10432579;28;20242;-72
2022/10/29 02:23:24;;;;;;;12.30;5.10;;;16.30;99.90;;;;;;10408638;28;20592;-72
2022/10/29 02:28:24;;;;;;;15.73;5.13;;;16.20;99.90;;;;;;10390022;28;20572;-72
2022/10/29 02:33:25;;;;;;;11.27;5.17;;;16.10;99.90;;;;;;10397766;28;20220;-72
2022/10/29 02:38:26;;;;;;;14.93;5.40;;;16.00;99.90;;;;;;10390481;28;20231;-72
2022/10/29 02:43:26;;;;;;;15.83;5.90;;;16.00;99.90;;;;;;10396225;28;20216;-72
2022/10/29 02:48:30;;;;;;;19.67;6.17;;;15.90;99.90;;;;;;10396780;28;20220;-71
2022/10/29 02:53:30;;;;;;;12.30;6.67;;;15.80;99.90;;;;;;10388785;28;20311;-71
2022/10/29 02:58:32;;;;;;;12.63;6.43;;;15.70;99.90;;;;;;10393383;28;20217;-72
2022/10/29 03:03:32;;;;;;;14.17;5.87;;;15.60;99.90;;;;;;10395576;28;20233;-72
2022/10/29 03:08:33;;;;;;;11.37;5.83;;;15.60;99.90;;;;;;10395787;28;20237;-71
2022/10/29 03:13:33;;;;;;;11.90;5.53;;;15.50;99.90;;;;;;10392836;28;20274;-71
2022/10/29 03:18:34;;;;;;;8.10;5.53;;;15.40;99.90;;;;;;10388765;28;20277;-72
2022/10/29 03:23:35;;;;;;;17.17;6.67;;;15.30;99.90;;;;;;10393967;28;20323;-73
2022/10/29 03:28:38;;;;;;;12.37;6.37;;;15.20;99.90;;;;;;10393936;28;20223;-73
2022/10/29 03:33:39;;;;;;;10.67;6.00;;;15.10;99.90;;;;;;10395590;28;20774;-71
2022/10/29 03:38:39;;;;;;;15.57;6.40;;;15.00;99.90;;;;;;10394426;28;20220;-71
2022/10/29 03:43:40;;;;;;;12.50;5.97;;;15.00;99.90;;;;;;10386959;28;20240;-72
2022/10/29 03:48:40;;;;;;;14.73;6.97;;;14.90;99.90;;;;;;10394426;28;20221;-72
2022/10/29 03:53:41;;;;;;;11.67;5.77;;;14.80;99.90;;;;;;10386818;28;20217;-72
2022/10/29 03:58:42;;;;;;;13.23;6.33;;;14.70;99.90;;;;;;10392698;28;20220;-72
2022/10/29 04:03:42;;;;;;;14.60;6.83;;;14.60;99.90;;;;;;10393058;28;20223;-72
2022/10/29 04:08:43;;;;;;;13.73;6.70;;;14.60;99.90;;;;;;10393928;28;20233;-72
2022/10/29 04:13:43;;;;;;;11.53;6.67;;;14.50;99.90;;;;;;10392503;28;20217;-71
2022/10/29 04:18:48;;;;;;;14.70;7.07;;;14.60;99.90;;;;;;10393295;28;20733;-72
2022/10/29 04:23:49;;;;;;;9.00;6.10;;;14.50;99.90;;;;;;10385734;28;20214;-71
2022/10/29 04:28:50;;;;;;;12.30;6.67;;;14.60;99.90;;;;;;10390869;28;20220;-71
2022/10/29 04:33:54;;;;;;;19.53;6.87;;;14.70;99.90;;;;;;10393300;28;20212;-72
2022/10/29 04:38:54;;;;;;;17.57;8.53;;;14.70;99.90;;;;;;10390701;28;20217;-71
2022/10/29 04:43:55;;;;;;;21.40;8.47;;;14.80;99.90;;;;;;10385495;28;20296;-71
2022/10/29 04:48:58;;;;;;;14.07;7.07;;;14.90;99.90;;;;;;10397453;28;20217;-71
2022/10/29 04:53:59;;;;;;;14.00;6.80;;;15.10;99.90;;;;;;10385659;28;20700;-71
2022/10/29 04:58:59;;;;;;;16.43;6.63;;;15.20;99.90;;;;;;10391427;28;20243;-72
2022/10/29 05:04:00;;;;;;;16.77;7.23;;;15.20;99.90;;;;;;10429391;28;20223;-72
2022/10/29 05:09:01;;;;;;;12.60;6.57;;;15.30;99.90;;;;;;10433492;28;20221;-72
2022/10/29 05:14:05;;;;;;;12.10;6.47;;;15.30;99.90;;;;;;10406145;28;20225;-72
2022/10/29 05:19:05;;;;;;;13.70;6.73;;;15.30;99.90;;;;;;10422513;28;20251;-71
2022/10/29 05:24:06;;;;;;;14.73;7.13;;;15.30;99.90;;;;;;10398088;28;20224;-72
2022/10/29 05:29:07;;;;;;;11.93;6.33;;;15.30;99.90;;;;;;10390796;28;20908;-71
2022/10/29 05:34:07;;;;;;;13.03;6.33;;;15.30;99.90;;;;;;10386521;28;20588;-71
2022/10/29 05:39:08;;;;;;;14.80;6.77;;;15.30;99.90;;;;;;10390159;28;20224;-72
2022/10/29 05:44:08;;;;;;;10.53;7.33;;;15.30;99.90;;;;;;10385896;28;20726;-72
2022/10/29 05:49:11;;;;;;;10.87;6.67;;;15.30;99.90;;;;;;10385180;28;20808;-72
2022/10/29 05:54:11;;;;;;;15.17;6.80;;;15.30;99.90;;;;;;10386379;28;20221;-72
2022/10/29 05:59:12;;;;;;;10.57;6.27;;;15.20;99.90;;;;;;10384298;28;20228;-71
2022/10/29 06:04:12;;;;;;;11.83;6.50;;;15.20;99.90;;;;;;10390499;28;20219;-72
2022/10/29 06:09:16;;;;;;;11.87;6.37;;;15.20;99.90;;;;;;10389273;28;20775;-71
2022/10/29 06:14:16;;;;;;;16.87;7.13;;;15.20;99.90;;;;;;10384579;28;20724;-71
2022/10/29 06:19:17;;;;;;;10.90;6.07;;;15.20;99.90;;;;;;10384062;28;20224;-71
2022/10/29 06:24:17;;;;;;;8.23;6.20;;;15.20;99.90;;;;;;10382989;28;20300;-72
2022/10/29 06:29:18;;;;;;;12.97;7.03;;;15.20;99.90;;;;;;10385001;28;20264;-72
2022/10/29 06:34:18;;;;;;;14.93;7.13;;;15.20;99.90;;;;;;10388454;28;20243;-73
2022/10/29 06:39:22;;;;;;;11.77;6.40;;;15.30;99.90;;;;;;10383539;28;20815;-73
2022/10/29 06:44:22;;;;;;;14.07;6.43;;;15.30;99.90;;;;;;10384414;28;20213;-72
2022/10/29 06:49:26;;;;;;;17.03;6.23;;;15.40;99.90;;;;;;10389793;28;20208;-72
2022/10/29 06:54:26;;;;;;;18.93;7.20;;;15.40;99.90;;;;;;10382586;28;20280;-73
2022/10/29 06:59:27;;;;;;;17.33;7.17;;;15.50;99.90;;;;;;10384876;28;20776;-72
2022/10/29 07:04:27;;;;;;;13.10;7.27;;;15.40;99.90;;;;;;10394028;28;20281;-73
2022/10/29 07:09:28;;;;;;;12.20;7.10;;;15.50;99.90;;;;;;10390863;28;20233;-71
2022/10/29 07:14:29;;;;;;;13.27;7.07;;;15.60;99.90;;;;;;10396586;28;20245;-72
2022/10/29 07:19:30;;;;;;;14.50;7.53;;;15.70;99.90;;;;;;10394638;28;20229;-72
2022/10/29 07:24:30;;;;;;;12.33;6.97;;;15.80;99.90;;;;;;10387780;28;20224;-72
2022/10/29 07:29:31;;;;;;;10.27;6.57;;;15.90;99.90;;;;;;10402067;28;20212;-72
2022/10/29 07:34:32;;;;;;;13.57;6.97;;;16.10;99.90;;;;;;10388979;28;20742;-72
2022/10/29 07:39:32;;;;;;;16.37;7.20;;;16.30;99.90;;;;;;10396206;28;20233;-73
2022/10/29 07:44:33;;;;;;;17.77;7.50;;;16.50;99.90;;;;;;10395237;28;20226;-72
2022/10/29 07:49:33;;;;;;;13.37;6.63;;;16.70;99.90;;;;;;10392187;28;20595;-72
2022/10/29 07:54:34;;;;;;;12.10;6.23;;;17.00;99.90;;;;;;10387700;28;20250;-73
2022/10/29 07:59:34;;;;;;;11.73;5.90;;;17.30;99.90;;;;;;10398082;28;20276;-73
2022/10/29 08:04:38;;;;;;;16.57;6.53;;;17.70;99.90;;;;;;10391058;28;20301;-71
2022/10/29 08:09:39;;;;;;;10.73;6.20;;;18.00;99.90;;;;;;10394979;28;20314;-71
2022/10/29 08:14:40;;;;;;;13.90;6.03;;;18.20;99.90;;;;;;10385965;28;20228;-72
2022/10/29 08:19:40;;;;;;;11.50;5.90;;;18.30;99.90;;;;;;10393312;28;20588;-71
2022/10/29 08:24:41;;;;;;;14.63;6.30;;;18.40;99.90;;;;;;10391224;28;20321;-73
2022/10/29 08:29:42;;;;;;;13.50;5.57;;;18.90;99.90;;;;;;10385064;28;20255;-73
2022/10/29 08:34:42;;;;;;;10.27;5.83;;;19.70;99.90;;;;;;10391402;28;20227;-72
2022/10/29 08:39:43;;;;;;;11.00;5.50;;;20.10;99.90;;;;;;10395067;28;20223;-72
2022/10/29 08:45:10;;;;;;;18.37;6.30;;;20.00;99.90;;;;;;10421367;28;20238;-72
2022/10/29 08:50:32;;;;;;;13.40;5.90;;;19.80;99.90;;;;;;10428155;28;20233;-72
2022/10/29 08:55:36;;;;;;;14.47;6.67;;;19.90;99.90;;;;;;10386156;28;20223;-73
2022/10/29 09:00:40;;;;;;;16.30;6.10;;;20.40;99.90;;;;;;10399479;28;20310;-72
2022/10/29 09:05:59;;;;;;;13.30;5.83;;;20.50;99.90;;;;;;10383978;28;20233;-71
2022/10/29 09:11:19;;;;;;;13.77;6.13;;;20.50;99.90;;;;;;10385461;28;20239;-72
2022/10/29 09:16:57;;;;;;;16.90;6.90;;;20.20;99.90;;;;;;10390404;28;20227;-72
2022/10/29 09:22:28;;;;;;;19.80;6.33;;;20.00;99.90;;;;;;10384702;28;20240;-71
2022/10/29 09:27:55;;;;;;;8.80;5.27;;;19.90;99.90;;;;;;10384457;28;20227;-72
2022/10/29 09:33:10;;;;;;;15.93;6.40;;;19.80;99.90;;;;;;10411436;28;20297;-72
2022/10/29 09:38:25;;;;;;;13.77;6.33;;;19.60;99.90;;;;;;10402705;28;20228;-72
2022/10/29 09:43:44;;;;;;;14.73;6.33;;;19.50;99.90;;;;;;10381930;28;20725;-72
2022/10/29 09:48:52;;;;;;;11.60;5.20;;;19.40;99.90;;;;;;10387828;28;20706;-73
2022/10/29 09:53:53;;;;;;;14.13;6.30;;;19.50;99.90;;;;;;10387601;28;20230;-73
2022/10/29 09:59:06;;;;;;;12.73;6.13;;;19.60;99.90;;;;;;10383240;28;20605;-73
2022/10/29 10:04:18;;;;;;;15.90;6.10;;;19.70;99.90;;;;;;10393841;28;20306;-72
2022/10/29 10:09:18;;;;;;;10.87;6.07;;;19.80;99.90;;;;;;10393520;28;20220;-73
2022/10/29 10:14:21;;;;;;;14.20;5.93;;;20.10;99.90;;;;;;10393649;28;20221;-73
2022/10/29 10:19:30;;;;;;;13.53;5.57;;;20.80;99.90;;;;;;10421033;28;20270;-73
2022/10/29 10:24:35;;;;;;;11.87;5.57;;;24.50;99.90;;;;;;10394633;28;20304;-73
2022/10/29 10:29:36;;;;;;;14.07;5.00;;;29.60;99.90;;;;;;10396736;28;20223;-72
2022/10/29 10:34:37;;;;;;;12.37;5.17;;;32.20;84.20;;;;;;10382919;28;20224;-73
2022/10/29 10:40:02;;;;;;;11.73;4.63;;;31.00;77.70;;;;;;10396753;28;20219;-73
2022/10/29 10:45:15;;;;;;;14.20;5.70;;;29.00;85.50;;;;;;10431134;28;20296;-71
2022/10/29 10:50:24;;;;;;;17.83;5.63;;;28.60;85.40;;;;;;10439933;28;20243;-72
2022/10/29 10:55:32;;;;;;;14.10;5.93;;;29.20;83.00;;;;;;10401965;28;20220;-73
2022/10/29 11:00:42;;;;;;;13.93;5.70;;;28.80;83.40;;;;;;10390155;28;20225;-72
2022/10/29 11:06:09;;;;;;;10.47;4.83;;;27.60;87.20;;;;;;10396588;28;20242;-72
2022/10/29 11:11:35;;;;;;;16.00;6.13;;;26.50;91.30;;;;;;10391664;28;20231;-74
2022/10/29 11:16:50;;;;;;;9.37;5.00;;;25.80;93.10;;;;;;10388115;28;20222;-72
2022/10/29 11:22:10;;;;;;;12.93;5.20;;;25.60;94.60;;;;;;10403795;28;20322;-73
2022/10/29 11:27:38;;;;;;;14.57;5.77;;;25.50;95.60;;;;;;10392491;28;20609;-73
2022/10/29 11:32:49;;;;;;;10.13;5.67;;;25.30;96.40;;;;;;10393409;28;20233;-73
2022/10/29 11:38:08;;;;;;;18.00;6.87;;;25.30;97.10;;;;;;10395336;28;20321;-73
2022/10/29 11:43:11;;;;;;;15.53;6.27;;;25.00;97.80;;;;;;10391787;28;20237;-73
2022/10/29 11:48:18;;;;;;;14.50;5.77;;;25.00;98.30;;;;;;10389716;28;20278;-72
2022/10/29 11:53:57;;;;;;;14.80;5.60;;;24.80;99.00;;;;;;10395789;28;20229;-71
2022/10/29 11:59:10;;;;;;;10.93;5.20;;;24.60;99.50;;;;;;10388710;28;20233;-71
2022/10/29 12:04:43;;;;;;;13.50;5.00;;;24.20;99.90;;;;;;10391122;28;20784;-72
2022/10/29 12:09:58;;;;;;;14.90;6.40;;;23.70;99.90;;;;;;10384213;28;20320;-72
2022/10/29 12:15:22;;;;;;;13.33;5.63;;;23.30;99.90;;;;;;10436021;28;20207;-73
2022/10/29 12:20:46;;;;;;;21.87;6.70;;;22.80;99.90;;;;;;10390023;28;20229;-72
2022/10/29 12:26:14;;;;;;;14.60;5.90;;;22.30;99.90;;;;;;10420725;28;20213;-74
2022/10/29 12:31:32;;;;;;;17.17;6.20;;;21.90;99.90;;;;;;10387843;28;20267;-73
2022/10/29 12:36:42;;;;;;;14.90;6.23;;;21.80;99.90;;;;;;10392615;28;20219;-72
2022/10/29 12:41:46;;;;;;;18.17;6.97;;;21.70;99.90;;;;;;10384779;28;20700;-72
2022/10/29 12:47:16;;;;;;;16.30;6.33;;;21.60;99.90;;;;;;10388936;28;20615;-71
2022/10/29 12:52:31;;;;;;;14.57;7.93;;;21.60;99.90;;;;;;10392202;28;20806;-73
2022/10/29 12:57:34;;;;;;;12.87;6.70;;;21.60;99.90;;;;;;10384082;28;20285;-71
2022/10/29 13:02:37;;;;;;;19.37;8.00;;;21.60;99.90;;;;;;10391038;28;20237;-72
2022/10/29 13:07:44;;;;;;;14.40;7.07;;;21.50;99.90;;;;;;10389574;28;20428;-71
2022/10/29 13:12:53;;;;;;;19.63;8.40;;;21.50;99.90;;;;;;10383467;28;20271;-72
2022/10/29 13:17:56;;;;;;;11.77;6.17;;;21.60;99.90;;;;;;10384728;28;20331;-72
2022/10/29 13:22:59;;;;;;;24.83;7.77;;;21.60;99.90;;;;;;10388462;28;20285;-71
2022/10/29 13:28:20;;;;;;;18.23;7.23;;;21.60;99.90;;;;;;10385294;28;20221;-72
2022/10/29 13:33:20;;;;;;;15.37;7.33;;;21.30;99.90;;;;;;10395302;28;20294;-72
2022/10/29 13:38:44;;;;;;;17.63;7.27;;;21.10;99.90;;;;;;10386149;28;20755;-72
2022/10/29 13:44:21;;;;;;;16.87;6.87;;;20.90;99.90;;;;;;10387237;28;20365;-72
2022/10/29 13:49:43;;;;;;;20.63;7.33;;;20.90;99.90;;;;;;10387687;28;20627;-72
2022/10/29 13:54:59;;;;;;;19.10;8.43;;;20.90;99.90;;;;;;10381821;28;20225;-72
2022/10/29 14:00:07;;;;;;;16.30;7.27;;;20.90;99.90;;;;;;10429191;28;20223;-73
2022/10/29 14:05:13;;;;;;;14.23;6.27;;;20.90;99.90;;;;;;10389384;28;20215;-72
2022/10/29 14:10:53;;;;;;;19.43;7.70;;;21.00;99.90;;;;;;10425110;28;20207;-72
2022/10/29 14:16:06;;;;;;;12.27;6.70;;;21.00;99.90;;;;;;10384508;28;20224;-72
2022/10/29 14:21:21;;;;;;;17.40;6.73;;;21.00;99.90;;;;;;10386791;28;20232;-73
2022/10/29 14:26:23;;;;;;;19.43;6.57;;;21.00;99.90;;;;;;10381321;28;20258;-72
2022/10/29 14:31:25;;;;;;;16.93;7.10;;;20.80;99.90;;;;;;10394003;28;20224;-71
2022/10/29 14:36:38;;;;;;;15.57;7.30;;;20.70;99.90;;;;;;10383897;28;20373;-72
2022/10/29 14:41:42;;;;;;;17.47;6.87;;;20.50;99.90;;;;;;10404450;28;20223;-71
2022/10/29 14:47:07;;;;;;;19.33;7.00;;;20.40;99.90;;;;;;10407154;28;20243;-72
2022/10/29 14:52:29;;;;;;;14.43;6.90;;;20.30;99.90;;;;;;10382634;28;20243;-72
2022/10/29 14:57:34;;;;;;;15.47;6.40;;;20.20;99.90;;;;;;10393072;28;20220;-72
2022/10/29 15:02:38;;;;;;;12.37;6.10;;;20.10;99.90;;;;;;10382354;28;20240;-72
2022/10/29 15:07:41;;;;;;;13.50;6.40;;;20.00;99.90;;;;;;10386955;28;20596;-73
2022/10/29 15:12:44;;;;;;;20.90;7.20;;;19.90;99.90;;;;;;10381248;28;20221;-72
2022/10/29 15:18:04;;;;;;;19.27;7.63;;;19.70;99.90;;;;;;10388741;28;20705;-71
2022/10/29 15:23:15;;;;;;;15.67;7.73;;;19.50;99.90;;;;;;10406754;28;20831;-73
2022/10/29 15:28:25;;;;;;;18.70;8.20;;;19.40;99.90;;;;;;10391906;28;20216;-73
2022/10/29 15:33:28;;;;;;;18.93;7.53;;;19.20;99.90;;;;;;10395408;28;20319;-72
2022/10/29 15:38:28;;;;;;;18.33;8.07;;;19.10;99.90;;;;;;10400990;28;20224;-71
2022/10/29 15:43:29;;;;;;;17.17;7.03;;;19.00;99.90;;;;;;10388656;28;20232;-71
2022/10/29 15:48:36;;;;;;;9.07;6.43;;;19.00;99.90;;;;;;10386570;28;20228;-71
2022/10/29 15:53:36;;;;;;;14.10;6.90;;;18.90;99.90;;;;;;10391880;28;20770;-72
2022/10/29 15:58:37;;;;;;;12.97;6.70;;;18.80;99.90;;;;;;10387431;28;20217;-72
2022/10/29 16:03:39;;;;;;;18.07;8.33;;;18.70;99.90;;;;;;10429612;28;20266;-73
2022/10/29 16:08:54;;;;;;;13.77;7.97;;;18.50;99.90;;;;;;10426161;28;20243;-72
2022/10/29 16:13:54;;;;;;;13.57;8.90;;;18.30;99.90;;;;;;10396478;28;20225;-72
2022/10/29 16:18:55;;;;;;;20.30;8.60;;;18.00;99.90;;;;;;10392242;28;20302;-72
2022/10/29 16:23:55;;;;;;;14.87;8.90;;;17.80;99.90;;;;;;10386520;28;21047;-72
2022/10/29 16:28:56;;;;;;;18.40;9.03;;;17.70;99.90;;;;;;10391445;28;20228;-72
2022/10/29 16:34:00;;;;;;;20.73;9.30;;;17.50;99.90;;;;;;10392884;28;20476;-71
2022/10/29 16:39:00;;;;;;;17.73;10.07;;;17.50;99.90;;;;;;10395847;28;20316;-73
2022/10/29 16:44:01;;;;;;;20.70;10.80;;;17.40;99.90;;;;;;10384641;28;20234;-72
2022/10/29 16:49:01;;;;;;;18.67;11.03;;;17.30;99.90;;;;;;10387031;28;20354;-73
2022/10/29 16:54:02;;;;;;;18.73;11.83;;;17.30;99.90;;;;;;10390219;28;20229;-72
2022/10/29 16:59:02;;;;;;;24.57;12.40;;;17.20;99.90;;;;;;10386610;28;20227;-72
2022/10/29 17:04:03;;;;;;;21.60;11.40;;;17.20;99.90;;;;;;10389684;28;20803;-72
2022/10/29 17:09:05;;;;;;;19.97;11.33;;;17.20;99.90;;;;;;10424344;28;20228;-72
2022/10/29 17:14:06;;;;;;;13.53;9.60;;;17.20;99.90;;;;;;10427304;28;20275;-71
2022/10/29 17:19:09;;;;;;;15.97;8.43;;;17.10;99.90;;;;;;10403113;28;20273;-72
2022/10/29 17:24:10;;;;;;;15.30;7.93;;;17.10;99.90;;;;;;10419138;28;20259;-72
2022/10/29 17:29:10;;;;;;;14.13;8.23;;;17.00;99.90;;;;;;10401945;28;20253;-72
2022/10/29 17:34:11;;;;;;;16.43;8.97;;;17.00;99.90;;;;;;10419366;28;20614;-72
2022/10/29 17:39:11;;;;;;;19.53;9.20;;;16.90;99.90;;;;;;10400913;28;20218;-71
2022/10/29 17:44:12;;;;;;;17.73;9.50;;;16.80;99.90;;;;;;10418619;28;20259;-72
2022/10/29 17:49:13;;;;;;;18.37;9.47;;;16.70;99.90;;;;;;10409448;28;20224;-72
2022/10/29 17:54:15;;;;;;;16.13;11.10;;;16.70;99.90;;;;;;10418113;28;20331;-71
2022/10/29 17:59:15;;;;;;;16.33;9.77;;;16.60;99.90;;;;;;10392083;28;20228;-71
2022/10/29 18:04:16;;;;;;;13.73;9.40;;;16.50;99.90;;;;;;10392768;28;20221;-72
2022/10/29 18:09:16;;;;;;;14.33;9.37;;;16.40;99.90;;;;;;10385300;28;20696;-73
2022/10/29 18:14:20;;;;;;;16.00;9.93;;;16.30;99.90;;;;;;10384361;28;20220;-72
2022/10/29 18:19:21;;;;;;;15.00;9.23;;;16.20;99.90;;;;;;10383525;28;20308;-71
2022/10/29 18:24:23;;;;;;;20.53;11.10;;;16.00;99.90;;;;;;10384884;28;20700;-72
2022/10/29 18:29:23;;;;;;;18.37;10.10;;;15.90;99.90;;;;;;10390940;28;20221;-72
2022/10/29 18:34:24;;;;;;;14.73;10.53;;;15.90;99.90;;;;;;10389583;28;20282;-72
2022/10/29 18:39:24;;;;;;;18.47;10.53;;;15.80;99.90;;;;;;10383797;28;20256;-72
2022/10/29 18:44:27;;;;;;;16.37;10.63;;;15.70;99.90;;;;;;10385597;28;20262;-72
2022/10/29 18:49:27;;;;;;;15.87;10.03;;;15.70;99.90;;;;;;10381878;28;20297;-72
2022/10/29 18:54:28;;;;;;;15.17;9.10;;;15.60;99.90;;;;;;10386065;28;20220;-72
2022/10/29 18:59:28;;;;;;;18.40;10.77;;;15.60;99.90;;;;;;10389384;28;20213;-73
2022/10/29 19:04:29;;;;;;;21.97;11.77;;;15.50;99.90;;;;;;10401499;28;20209;-72
2022/10/29 19:09:32;;;;;;;14.23;10.57;;;15.50;99.90;;;;;;10389967;28;20225;-72
2022/10/29 19:14:33;;;;;;;16.80;10.53;;;15.40;99.90;;;;;;10393961;28;20209;-71
2022/10/29 19:19:34;;;;;;;16.23;9.13;;;15.40;99.90;;;;;;10388325;28;20275;-72
2022/10/29 19:24:38;;;;;;;19.63;9.93;;;15.40;99.90;;;;;;10392361;28;20304;-71
2022/10/29 19:29:39;;;;;;;14.17;9.80;;;15.40;99.90;;;;;;10388148;28;20224;-71
2022/10/29 19:34:39;;;;;;;20.47;9.93;;;15.40;99.90;;;;;;10393981;28;20233;-71
2022/10/29 19:39:40;;;;;;;15.50;10.20;;;15.30;99.90;;;;;;10385665;28;20713;-72
2022/10/29 19:44:40;;;;;;;14.60;9.43;;;15.30;99.90;;;;;;10393183;28;20224;-71
2022/10/29 19:49:41;;;;;;;20.20;10.70;;;15.30;99.90;;;;;;10399458;28;20220;-71
2022/10/29 19:54:41;;;;;;;13.20;10.30;;;15.20;99.90;;;;;;10393931;28;20251;-73
2022/10/29 19:59:42;;;;;;;21.67;11.33;;;15.20;99.90;;;;;;10395055;28;20221;-72
2022/10/29 20:04:43;;;;;;;19.57;11.67;;;15.10;99.90;;;;;;10391075;28;20853;-72
2022/10/29 20:09:43;;;;;;;16.53;10.90;;;15.00;99.90;;;;;;10392951;28;20252;-72
2022/10/29 20:14:44;;;;;;;15.73;10.77;;;15.00;99.90;;;;;;10384554;28;20260;-72
2022/10/29 20:19:44;;;;;;;17.80;11.10;;;14.90;99.90;;;;;;10399385;28;20765;-72
2022/10/29 20:24:45;;;;;;;14.97;11.07;;;15.00;99.90;;;;;;10384979;28;20221;-73
2022/10/29 20:29:45;;;;;;;17.93;11.33;;;15.00;99.90;;;;;;10392531;28;20600;-72
2022/10/29 20:34:46;;;;;;;15.93;11.37;;;15.10;99.90;;;;;;10384506;28;20226;-72
2022/10/29 20:39:46;;;;;;;21.80;12.03;;;15.20;99.90;;;;;;10384406;28;20236;-73
2022/10/29 20:44:47;;;;;;;19.03;11.53;;;15.20;99.90;;;;;;10392244;28;20255;-71
2022/10/29 20:49:47;;;;;;;22.13;11.90;;;15.20;99.90;;;;;;10382687;28;20233;-71
2022/10/29 20:54:48;;;;;;;16.47;11.47;;;15.20;99.90;;;;;;10391539;28;20252;-71
2022/10/29 20:59:49;;;;;;;18.13;11.43;;;15.20;99.90;;;;;;10383990;28;20225;-71
2022/10/29 21:04:50;;;;;;;16.63;11.60;;;15.20;99.90;;;;;;10390885;28;20351;-71
2022/10/29 21:09:50;;;;;;;22.37;14.63;;;15.20;99.90;;;;;;10391185;28;20225;-72
2022/10/29 21:14:51;;;;;;;16.27;12.40;;;15.10;99.90;;;;;;10383635;28;20723;-72
2022/10/29 21:19:52;;;;;;;18.70;12.90;;;15.00;99.90;;;;;;10389547;28;20233;-72
2022/10/29 21:24:52;;;;;;;19.97;12.73;;;15.00;99.90;;;;;;10382085;28;20305;-72
2022/10/29 21:29:53;;;;;;;19.07;12.10;;;15.00;99.90;;;;;;10390301;28;20358;-72
2022/10/29 21:34:53;;;;;;;20.03;12.77;;;15.00;99.90;;;;;;10382579;28;20363;-72
2022/10/29 21:39:54;;;;;;;18.17;14.10;;;15.00;99.90;;;;;;10389837;28;20221;-73
2022/10/29 21:44:55;;;;;;;20.77;13.60;;;15.00;99.90;;;;;;10426609;28;20244;-73
2022/10/29 21:49:55;;;;;;;23.90;13.10;;;14.90;99.90;;;;;;10391271;28;20217;-72
2022/10/29 21:54:56;;;;;;;17.03;12.80;;;14.90;99.90;;;;;;10383490;28;20701;-72
2022/10/29 21:59:56;;;;;;;19.43;13.70;;;14.80;99.90;;;;;;10436682;28;20220;-72
2022/10/29 22:04:57;;;;;;;17.87;12.47;;;14.90;99.90;;;;;;10390622;28;20218;-72
2022/10/29 22:09:57;;;;;;;16.17;12.37;;;14.90;99.90;;;;;;10382928;28;20613;-71
2022/10/29 22:14:58;;;;;;;18.20;12.33;;;14.90;99.90;;;;;;10387713;28;20224;-72
2022/10/29 22:19:59;;;;;;;18.37;13.07;;;14.90;99.90;;;;;;10381564;28;20218;-72
2022/10/29 22:25:00;;;;;;;16.67;11.90;;;14.90;99.90;;;;;;10388737;28;20209;-72
2022/10/29 22:30:00;;;;;;;20.47;12.67;;;14.90;99.90;;;;;;10395237;28;20596;-72
2022/10/29 22:35:01;;;;;;;18.07;11.83;;;14.90;99.90;;;;;;10389474;28;20240;-71
2022/10/29 22:40:02;;;;;;;18.17;11.80;;;14.90;99.90;;;;;;10387523;28;20233;-71
2022/10/29 22:45:03;;;;;;;21.17;11.17;;;14.80;99.90;;;;;;10393685;28;20220;-72
2022/10/29 22:50:04;;;;;;;20.80;11.60;;;14.80;99.90;;;;;;10391091;28;20267;-72
2022/10/29 22:55:05;;;;;;;19.60;12.43;;;14.70;99.90;;;;;;10433573;28;20292;-72
2022/10/29 23:00:06;;;;;;;13.97;11.17;;;14.60;99.90;;;;;;10391269;28;20209;-72
2022/10/29 23:05:07;;;;;;;16.07;10.67;;;14.50;99.90;;;;;;10392433;28;20757;-72
2022/10/29 23:10:08;;;;;;;16.87;11.27;;;14.50;99.90;;;;;;10398579;28;20213;-71
2022/10/29 23:15:09;;;;;;;18.97;10.87;;;14.40;99.90;;;;;;10392001;28;20649;-73
2022/10/29 23:20:10;;;;;;;16.53;10.23;;;14.40;99.90;;;;;;10392924;28;20229;-72
2022/10/29 23:25:10;;;;;;;16.23;10.37;;;14.40;99.90;;;;;;10395264;28;20189;-73
2022/10/29 23:30:11;;;;;;;17.27;10.17;;;14.40;99.90;;;;;;10391240;28;20220;-73
2022/10/29 23:35:12;;;;;;;13.57;9.73;;;14.30;99.90;;;;;;10392306;28;20189;-71
2022/10/29 23:40:12;;;;;;;16.93;10.23;;;14.30;99.90;;;;;;10391318;28;20205;-71
2022/10/29 23:45:15;;;;;;;16.43;10.43;;;14.30;99.90;;;;;;10400682;28;20173;-71
2022/10/29 23:50:16;;;;;;;19.80;11.27;;;14.30;99.90;;;;;;10389574;28;20187;-71
2022/10/29 23:55:16;;;;;;;17.10;11.07;;;14.20;99.90;;;;;;10390813;28;20189;-72
